Piarco FIR Weather

TAPA 210200Z 08010KT 9999 FEW018 25/21 Q1017 NOSIG

TBPB 210200Z 07019KT 9999 FEW020 26/22 Q1015 NOSIG

TDPD 202200Z 08010KT 9999 BKN019 26/21 Q1016

TFFF 210200Z AUTO 10012KT 9999 FEW026/// 26/21 Q1016 NOSIG

TFFR 210200Z AUTO 09003KT 9999 FEW031 24/20 Q1017 NOSIG

TGPY 210200Z 08009KT 9999 SCT018 25/23 Q1015 NOSIG

TKPK 210200Z 06011KT 9999 SCT018 25/22 Q1018

TKPN 202300Z 09013KT 9999 FEW018TCU 26/20 Q1017

TLPC 210000Z 09008KT 9999 FEW023 25/22 Q1016 NOSIG

TLPL 210200Z 08016KT 9999 SCT025 27/21 Q1016 NOSIG

TTCP 210200Z 00000KT 9999 VCSH FEW016 26/22 Q1015 NOSIG RMK VCSH-NE

TTPP 210200Z 10004KT 9999 FEW016 24/22 Q1014 NOSIG

TVSV 150100Z 06009KT 9999 SCT015 26/19 Q1015